sensor_id;sensor_type;location;lat;lon;timestamp;pressure;altitude;pressure_sealevel;temperature;humidity
20752;BME280;10536;51.582;5.016;2022-07-29T00:04:09;101724.50;;;17.70;100.00
20752;BME280;10536;51.582;5.016;2022-07-29T00:09:10;101720.13;;;17.71;100.00
20752;BME280;10536;51.582;5.016;2022-07-29T00:14:10;101718.44;;;17.68;100.00
20752;BME280;10536;51.582;5.016;2022-07-29T00:19:11;101721.13;;;17.65;100.00
20752;BME280;10536;51.582;5.016;2022-07-29T00:24:11;101712.47;;;17.63;100.00
20752;BME280;10536;51.582;5.016;2022-07-29T00:29:11;101706.38;;;17.64;100.00
20752;BME280;10536;51.582;5.016;2022-07-29T00:34:12;101706.41;;;17.63;100.00
20752;BME280;10536;51.582;5.016;2022-07-29T00:39:30;101700.38;;;17.59;100.00
20752;BME280;10536;51.582;5.016;2022-07-29T00:44:36;101691.72;;;17.57;100.00
20752;BME280;10536;51.582;5.016;2022-07-29T00:49:38;101697.00;;;17.55;100.00
20752;BME280;10536;51.582;5.016;2022-07-29T00:54:39;101693.53;;;17.55;100.00
20752;BME280;10536;51.582;5.016;2022-07-29T00:59:40;101688.34;;;17.53;100.00
20752;BME280;10536;51.582;5.016;2022-07-29T01:04:41;101686.59;;;17.54;100.00
20752;BME280;10536;51.582;5.016;2022-07-29T01:09:42;101687.59;;;17.50;100.00
20752;BME280;10536;51.582;5.016;2022-07-29T01:14:47;101682.44;;;17.47;100.00
20752;BME280;10536;51.582;5.016;2022-07-29T01:30:41;101667.78;;;17.41;100.00
20752;BME280;10536;51.582;5.016;2022-07-29T01:35:43;101669.63;;;17.37;100.00
20752;BME280;10536;51.582;5.016;2022-07-29T01:40:48;101665.41;;;17.32;100.00
20752;BME280;10536;51.582;5.016;2022-07-29T01:46:04;101655.94;;;17.28;100.00
20752;BME280;10536;51.582;5.016;2022-07-29T01:51:28;101656.06;;;17.23;100.00
20752;BME280;10536;51.582;5.016;2022-07-29T01:56:31;101658.81;;;17.19;100.00
20752;BME280;10536;51.582;5.016;2022-07-29T02:01:34;101657.16;;;17.14;100.00
20752;BME280;10536;51.582;5.016;2022-07-29T02:06:38;101654.72;;;17.08;100.00
20752;BME280;10536;51.582;5.016;2022-07-29T02:11:39;101661.78;;;17.05;100.00
20752;BME280;10536;51.582;5.016;2022-07-29T02:16:40;101661.91;;;17.00;100.00
20752;BME280;10536;51.582;5.016;2022-07-29T02:21:42;101648.06;;;16.96;100.00
20752;BME280;10536;51.582;5.016;2022-07-29T02:26:45;101633.34;;;16.94;100.00
20752;BME280;10536;51.582;5.016;2022-07-29T02:31:48;101633.38;;;16.92;100.00
20752;BME280;10536;51.582;5.016;2022-07-29T02:36:50;101634.34;;;16.88;100.00
20752;BME280;10536;51.582;5.016;2022-07-29T02:41:57;101637.03;;;16.85;100.00
20752;BME280;10536;51.582;5.016;2022-07-29T02:52:37;101643.31;;;16.78;100.00
20752;BME280;10536;51.582;5.016;2022-07-29T02:57:47;101641.78;;;16.69;100.00
20752;BME280;10536;51.582;5.016;2022-07-29T03:02:52;101644.66;;;16.58;100.00
20752;BME280;10536;51.582;5.016;2022-07-29T03:08:05;101645.47;;;16.62;100.00
20752;BME280;10536;51.582;5.016;2022-07-29T03:13:07;101640.34;;;16.57;100.00
20752;BME280;10536;51.582;5.016;2022-07-29T03:18:08;101630.03;;;16.51;100.00
20752;BME280;10536;51.582;5.016;2022-07-29T03:23:09;101630.13;;;16.48;100.00
20752;BME280;10536;51.582;5.016;2022-07-29T03:28:09;101641.66;;;16.39;100.00
20752;BME280;10536;51.582;5.016;2022-07-29T03:33:10;101638.38;;;16.31;100.00
20752;BME280;10536;51.582;5.016;2022-07-29T03:38:11;101640.25;;;16.25;100.00
20752;BME280;10536;51.582;5.016;2022-07-29T03:43:13;101635.28;;;16.15;100.00
20752;BME280;10536;51.582;5.016;2022-07-29T03:48:18;101634.53;;;16.09;100.00
20752;BME280;10536;51.582;5.016;2022-07-29T03:53:19;101625.16;;;16.02;100.00
20752;BME280;10536;51.582;5.016;2022-07-29T03:58:20;101629.66;;;15.93;100.00
20752;BME280;10536;51.582;5.016;2022-07-29T04:03:21;101636.81;;;15.85;100.00
20752;BME280;10536;51.582;5.016;2022-07-29T04:08:22;101640.53;;;15.75;100.00
20752;BME280;10536;51.582;5.016;2022-07-29T04:13:23;101638.84;;;15.71;100.00
20752;BME280;10536;51.582;5.016;2022-07-29T04:18:24;101638.88;;;15.68;100.00
20752;BME280;10536;51.582;5.016;2022-07-29T04:23:24;101641.50;;;15.68;100.00
20752;BME280;10536;51.582;5.016;2022-07-29T04:28:25;101645.84;;;15.69;100.00
20752;BME280;10536;51.582;5.016;2022-07-29T04:33:26;101643.16;;;15.72;100.00
20752;BME280;10536;51.582;5.016;2022-07-29T04:38:26;101643.28;;;15.66;100.00
20752;BME280;10536;51.582;5.016;2022-07-29T04:43:27;101652.72;;;15.73;100.00
20752;BME280;10536;51.582;5.016;2022-07-29T04:48:27;101650.94;;;15.75;100.00
20752;BME280;10536;51.582;5.016;2022-07-29T04:53:28;101645.88;;;15.66;100.00
20752;BME280;10536;51.582;5.016;2022-07-29T04:58:28;101640.66;;;15.67;100.00
20752;BME280;10536;51.582;5.016;2022-07-29T05:03:29;101640.66;;;15.67;100.00
20752;BME280;10536;51.582;5.016;2022-07-29T05:08:29;101643.06;;;15.78;100.00
20752;BME280;10536;51.582;5.016;2022-07-29T05:13:30;101650.84;;;15.79;100.00
20752;BME280;10536;51.582;5.016;2022-07-29T05:18:30;101664.47;;;15.94;100.00
20752;BME280;10536;51.582;5.016;2022-07-29T05:23:31;101664.25;;;16.03;100.00
20752;BME280;10536;51.582;5.016;2022-07-29T05:28:34;101668.44;;;16.10;100.00
20752;BME280;10536;51.582;5.016;2022-07-29T05:33:35;101666.75;;;16.09;100.00
20752;BME280;10536;51.582;5.016;2022-07-29T05:38:36;101671.00;;;16.13;100.00
20752;BME280;10536;51.582;5.016;2022-07-29T05:43:36;101678.66;;;16.21;100.00
20752;BME280;10536;51.582;5.016;2022-07-29T05:48:37;101694.19;;;16.26;100.00
20752;BME280;10536;51.582;5.016;2022-07-29T05:53:37;101697.50;;;16.32;100.00
20752;BME280;10536;51.582;5.016;2022-07-29T05:58:38;101705.97;;;16.44;100.00
20752;BME280;10536;51.582;5.016;2022-07-29T06:03:38;101697.88;;;16.54;100.00
20752;BME280;10536;51.582;5.016;2022-07-29T06:08:41;101703.78;;;16.63;100.00
20752;BME280;10536;51.582;5.016;2022-07-29T06:13:41;101693.38;;;16.59;100.00
20752;BME280;10536;51.582;5.016;2022-07-29T06:18:42;101690.41;;;16.75;100.00
20752;BME280;10536;51.582;5.016;2022-07-29T06:23:45;101693.78;;;16.78;100.00
20752;BME280;10536;51.582;5.016;2022-07-29T06:28:46;101696.44;;;16.77;100.00
20752;BME280;10536;51.582;5.016;2022-07-29T06:33:46;101693.78;;;16.80;100.00
20752;BME280;10536;51.582;5.016;2022-07-29T06:38:47;101707.47;;;16.91;100.00
20752;BME280;10536;51.582;5.016;2022-07-29T06:43:47;101699.31;;;17.02;100.00
20752;BME280;10536;51.582;5.016;2022-07-29T06:48:48;101694.75;;;17.10;100.00
20752;BME280;10536;51.582;5.016;2022-07-29T06:54:09;101698.97;;;17.16;100.00
20752;BME280;10536;51.582;5.016;2022-07-29T06:59:16;101698.59;;;17.30;100.00
20752;BME280;10536;51.582;5.016;2022-07-29T07:04:16;101707.22;;;17.33;100.00
20752;BME280;10536;51.582;5.016;2022-07-29T07:09:17;101713.03;;;17.43;100.00
20752;BME280;10536;51.582;5.016;2022-07-29T07:14:17;101722.31;;;17.55;100.00
20752;BME280;10536;51.582;5.016;2022-07-29T07:19:17;101719.25;;;17.70;100.00
20752;BME280;10536;51.582;5.016;2022-07-29T07:24:19;101715.25;;;17.90;100.00
20752;BME280;10536;51.582;5.016;2022-07-29T07:29:28;101720.47;;;18.20;100.00
20752;BME280;10536;51.582;5.016;2022-07-29T07:34:29;101725.31;;;18.60;100.00
20752;BME280;10536;51.582;5.016;2022-07-29T07:45:45;101731.25;;;19.19;100.00
20752;BME280;10536;51.582;5.016;2022-07-29T07:50:46;101714.13;;;19.33;100.00
20752;BME280;10536;51.582;5.016;2022-07-29T07:55:46;101708.44;;;19.46;100.00
20752;BME280;10536;51.582;5.016;2022-07-29T08:00:47;101703.41;;;19.40;100.00
20752;BME280;10536;51.582;5.016;2022-07-29T08:06:53;101711.16;;;19.43;100.00
20752;BME280;10536;51.582;5.016;2022-07-29T08:11:58;101703.59;;;19.59;100.00
20752;BME280;10536;51.582;5.016;2022-07-29T08:17:20;101704.53;;;19.81;100.00
20752;BME280;10536;51.582;5.016;2022-07-29T08:22:20;101707.28;;;20.24;100.00
20752;BME280;10536;51.582;5.016;2022-07-29T08:27:21;101702.94;;;20.45;100.00
20752;BME280;10536;51.582;5.016;2022-07-29T08:32:21;101702.63;;;20.52;100.00
20752;BME280;10536;51.582;5.016;2022-07-29T08:37:22;101700.44;;;20.64;100.00
20752;BME280;10536;51.582;5.016;2022-07-29T08:42:22;101715.50;;;20.81;100.00
20752;BME280;10536;51.582;5.016;2022-07-29T08:47:23;101710.66;;;20.92;100.00
20752;BME280;10536;51.582;5.016;2022-07-29T08:52:26;101718.09;;;21.03;100.00
20752;BME280;10536;51.582;5.016;2022-07-29T08:57:32;101718.97;;;21.44;100.00
20752;BME280;10536;51.582;5.016;2022-07-29T09:02:38;101725.34;;;21.58;100.00
20752;BME280;10536;51.582;5.016;2022-07-29T09:07:39;101716.16;;;21.68;100.00
20752;BME280;10536;51.582;5.016;2022-07-29T09:12:43;101717.84;;;21.69;100.00
20752;BME280;10536;51.582;5.016;2022-07-29T09:17:48;101718.94;;;22.03;100.00
20752;BME280;10536;51.582;5.016;2022-07-29T09:22:50;101728.22;;;21.91;100.00
20752;BME280;10536;51.582;5.016;2022-07-29T09:27:52;101719.34;;;22.13;100.00
20752;BME280;10536;51.582;5.016;2022-07-29T09:33:01;101720.25;;;22.12;100.00
20752;BME280;10536;51.582;5.016;2022-07-29T09:38:13;101724.06;;;22.25;100.00
20752;BME280;10536;51.582;5.016;2022-07-29T09:43:13;101720.63;;;22.23;100.00
20752;BME280;10536;51.582;5.016;2022-07-29T09:53:33;101719.41;;;22.30;100.00
20752;BME280;10536;51.582;5.016;2022-07-29T09:58:34;101719.22;;;22.52;100.00
20752;BME280;10536;51.582;5.016;2022-07-29T10:03:53;101707.22;;;22.64;100.00
20752;BME280;10536;51.582;5.016;2022-07-29T10:08:54;101706.28;;;23.00;100.00
20752;BME280;10536;51.582;5.016;2022-07-29T10:13:55;101708.75;;;23.04;100.00
20752;BME280;10536;51.582;5.016;2022-07-29T10:18:59;101708.50;;;23.09;100.00
20752;BME280;10536;51.582;5.016;2022-07-29T10:23:59;101699.84;;;23.23;100.00
20752;BME280;10536;51.582;5.016;2022-07-29T10:29:00;101703.13;;;23.28;100.00
20752;BME280;10536;51.582;5.016;2022-07-29T10:44:23;101693.13;;;23.66;100.00
20752;BME280;10536;51.582;5.016;2022-07-29T10:49:26;101701.81;;;23.69;100.00
20752;BME280;10536;51.582;5.016;2022-07-29T10:54:49;101692.75;;;23.57;100.00
20752;BME280;10536;51.582;5.016;2022-07-29T11:00:36;101697.19;;;23.56;100.00
20752;BME280;10536;51.582;5.016;2022-07-29T11:05:14;101697.53;;;23.83;100.00
20752;BME280;10536;51.582;5.016;2022-07-29T11:15:21;101692.56;;;23.93;100.00
20752;BME280;10536;51.582;5.016;2022-07-29T11:20:46;101694.59;;;23.88;100.00
20752;BME280;10536;51.582;5.016;2022-07-29T11:31:10;101694.09;;;24.13;100.00
20752;BME280;10536;51.582;5.016;2022-07-29T11:36:14;101692.50;;;24.11;100.00
20752;BME280;10536;51.582;5.016;2022-07-29T11:41:25;101694.84;;;24.31;100.00
20752;BME280;10536;51.582;5.016;2022-07-29T11:46:46;101682.06;;;24.39;100.00
20752;BME280;10536;51.582;5.016;2022-07-29T11:51:52;101685.59;;;24.54;100.00
20752;BME280;10536;51.582;5.016;2022-07-29T11:56:53;101686.44;;;24.55;100.00
20752;BME280;10536;51.582;5.016;2022-07-29T12:01:56;101683.91;;;24.53;100.00
20752;BME280;10536;51.582;5.016;2022-07-29T12:06:57;101689.88;;;24.57;100.00
20752;BME280;10536;51.582;5.016;2022-07-29T12:11:58;101689.78;;;24.89;100.00
20752;BME280;10536;51.582;5.016;2022-07-29T12:16:59;101689.41;;;25.09;100.00
20752;BME280;10536;51.582;5.016;2022-07-29T12:22:00;101693.88;;;25.23;100.00
20752;BME280;10536;51.582;5.016;2022-07-29T12:27:01;101693.97;;;25.50;100.00
20752;BME280;10536;51.582;5.016;2022-07-29T12:32:02;101697.78;;;25.46;100.00
20752;BME280;10536;51.582;5.016;2022-07-29T12:37:03;101691.59;;;25.60;100.00
20752;BME280;10536;51.582;5.016;2022-07-29T12:42:14;101687.94;;;25.63;100.00
20752;BME280;10536;51.582;5.016;2022-07-29T12:47:16;101678.47;;;25.58;100.00
20752;BME280;10536;51.582;5.016;2022-07-29T12:52:29;101691.44;;;25.63;100.00
20752;BME280;10536;51.582;5.016;2022-07-29T12:57:30;101686.63;;;25.55;100.00
20752;BME280;10536;51.582;5.016;2022-07-29T13:02:32;101677.34;;;25.63;100.00
20752;BME280;10536;51.582;5.016;2022-07-29T13:07:34;101683.50;;;25.49;100.00
20752;BME280;10536;51.582;5.016;2022-07-29T13:12:36;101681.22;;;25.42;100.00
20752;BME280;10536;51.582;5.016;2022-07-29T13:17:41;101693.13;;;25.50;100.00
20752;BME280;10536;51.582;5.016;2022-07-29T13:22:47;101684.34;;;25.49;100.00
20752;BME280;10536;51.582;5.016;2022-07-29T13:27:47;101688.78;;;25.34;100.00
20752;BME280;10536;51.582;5.016;2022-07-29T13:32:48;101692.00;;;25.25;100.00
20752;BME280;10536;51.582;5.016;2022-07-29T13:37:49;101669.94;;;25.10;100.00
20752;BME280;10536;51.582;5.016;2022-07-29T13:42:49;101690.91;;;25.13;100.00
20752;BME280;10536;51.582;5.016;2022-07-29T13:47:50;101685.47;;;25.31;100.00
20752;BME280;10536;51.582;5.016;2022-07-29T13:52:50;101689.25;;;25.27;100.00
20752;BME280;10536;51.582;5.016;2022-07-29T13:57:51;101698.09;;;25.11;100.00
20752;BME280;10536;51.582;5.016;2022-07-29T14:02:51;101684.31;;;25.06;100.00
20752;BME280;10536;51.582;5.016;2022-07-29T14:07:52;101694.16;;;25.04;100.00
20752;BME280;10536;51.582;5.016;2022-07-29T14:12:52;101678.06;;;25.07;100.00
20752;BME280;10536;51.582;5.016;2022-07-29T14:17:53;101678.25;;;25.04;100.00
20752;BME280;10536;51.582;5.016;2022-07-29T14:22:53;101686.75;;;25.09;100.00
20752;BME280;10536;51.582;5.016;2022-07-29T14:27:53;101679.88;;;25.07;100.00
20752;BME280;10536;51.582;5.016;2022-07-29T14:32:54;101679.19;;;25.03;100.00
20752;BME280;10536;51.582;5.016;2022-07-29T14:37:54;101688.63;;;24.93;100.00
20752;BME280;10536;51.582;5.016;2022-07-29T14:42:55;101681.75;;;24.90;100.00
20752;BME280;10536;51.582;5.016;2022-07-29T14:47:55;101686.63;;;24.82;100.00
20752;BME280;10536;51.582;5.016;2022-07-29T14:52:56;101685.03;;;24.79;100.00
20752;BME280;10536;51.582;5.016;2022-07-29T14:57:56;101679.06;;;24.76;100.00
20752;BME280;10536;51.582;5.016;2022-07-29T15:02:59;101680.41;;;24.83;100.00
20752;BME280;10536;51.582;5.016;2022-07-29T15:08:00;101677.66;;;24.85;100.00
20752;BME280;10536;51.582;5.016;2022-07-29T15:13:01;101681.63;;;24.77;100.00
20752;BME280;10536;51.582;5.016;2022-07-29T15:18:01;101683.66;;;24.72;100.00
20752;BME280;10536;51.582;5.016;2022-07-29T15:23:02;101688.19;;;24.70;100.00
20752;BME280;10536;51.582;5.016;2022-07-29T15:28:02;101683.19;;;24.66;100.00
20752;BME280;10536;51.582;5.016;2022-07-29T15:33:08;101684.94;;;24.51;100.00
20752;BME280;10536;51.582;5.016;2022-07-29T15:38:09;101682.88;;;24.56;100.00
20752;BME280;10536;51.582;5.016;2022-07-29T15:43:09;101684.94;;;24.51;100.00
20752;BME280;10536;51.582;5.016;2022-07-29T15:48:10;101681.16;;;24.55;100.00
20752;BME280;10536;51.582;5.016;2022-07-29T15:53:10;101682.50;;;24.62;100.00
20752;BME280;10536;51.582;5.016;2022-07-29T15:58:11;101676.03;;;24.82;100.00
20752;BME280;10536;51.582;5.016;2022-07-29T16:03:11;101672.31;;;25.00;100.00
20752;BME280;10536;51.582;5.016;2022-07-29T16:08:12;101678.25;;;25.04;100.00
20752;BME280;10536;51.582;5.016;2022-07-29T16:13:12;101674.09;;;25.00;100.00
20752;BME280;10536;51.582;5.016;2022-07-29T16:18:13;101680.03;;;24.89;100.00
20752;BME280;10536;51.582;5.016;2022-07-29T16:23:13;101680.69;;;24.93;100.00
20752;BME280;10536;51.582;5.016;2022-07-29T16:28:17;101675.94;;;24.83;100.00
20752;BME280;10536;51.582;5.016;2022-07-29T16:33:18;101684.66;;;24.86;100.00
20752;BME280;10536;51.582;5.016;2022-07-29T16:38:19;101681.03;;;24.72;100.00
20752;BME280;10536;51.582;5.016;2022-07-29T16:43:19;101677.81;;;24.67;100.00
20752;BME280;10536;51.582;5.016;2022-07-29T16:48:19;101685.75;;;24.67;100.00
20752;BME280;10536;51.582;5.016;2022-07-29T16:53:20;101673.81;;;24.60;100.00
20752;BME280;10536;51.582;5.016;2022-07-29T16:58:20;101682.28;;;24.51;100.00
20752;BME280;10536;51.582;5.016;2022-07-29T17:03:21;101682.69;;;24.43;100.00
20752;BME280;10536;51.582;5.016;2022-07-29T17:08:22;101693.16;;;24.30;100.00
20752;BME280;10536;51.582;5.016;2022-07-29T17:13:25;101692.13;;;24.17;100.00
20752;BME280;10536;51.582;5.016;2022-07-29T17:18:25;101697.34;;;24.18;100.00
20752;BME280;10536;51.582;5.016;2022-07-29T17:23:26;101700.00;;;24.02;100.00
20752;BME280;10536;51.582;5.016;2022-07-29T17:28:27;101710.91;;;23.96;100.00
20752;BME280;10536;51.582;5.016;2022-07-29T17:33:45;101711.84;;;23.79;100.00
20752;BME280;10536;51.582;5.016;2022-07-29T17:38:46;101714.56;;;23.78;100.00
20752;BME280;10536;51.582;5.016;2022-07-29T17:44:12;101726.16;;;23.58;100.00
20752;BME280;10536;51.582;5.016;2022-07-29T17:49:12;101722.69;;;23.57;100.00
20752;BME280;10536;51.582;5.016;2022-07-29T17:54:13;101719.44;;;23.52;100.00
20752;BME280;10536;51.582;5.016;2022-07-29T17:59:13;101719.97;;;23.41;100.00
20752;BME280;10536;51.582;5.016;2022-07-29T18:04:14;101724.81;;;23.33;100.00
20752;BME280;10536;51.582;5.016;2022-07-29T18:09:19;101725.22;;;23.25;100.00
20752;BME280;10536;51.582;5.016;2022-07-29T18:14:19;101723.16;;;23.15;100.00
20752;BME280;10536;51.582;5.016;2022-07-29T18:19:21;101719.41;;;23.01;100.00
20752;BME280;10536;51.582;5.016;2022-07-29T18:24:23;101723.53;;;22.90;100.00
20752;BME280;10536;51.582;5.016;2022-07-29T18:29:24;101730.19;;;22.79;100.00
20752;BME280;10536;51.582;5.016;2022-07-29T18:34:24;101733.72;;;22.61;100.00
20752;BME280;10536;51.582;5.016;2022-07-29T18:39:25;101736.19;;;22.46;100.00
20752;BME280;10536;51.582;5.016;2022-07-29T18:44:26;101736.00;;;22.32;100.00
20752;BME280;10536;51.582;5.016;2022-07-29T18:49:26;101739.97;;;22.22;100.00
20752;BME280;10536;51.582;5.016;2022-07-29T18:54:27;101740.63;;;22.08;100.00
20752;BME280;10536;51.582;5.016;2022-07-29T18:59:30;101745.47;;;21.98;100.00
20752;BME280;10536;51.582;5.016;2022-07-29T19:04:34;101761.78;;;21.87;100.00
20752;BME280;10536;51.582;5.016;2022-07-29T19:09:35;101762.47;;;21.72;100.00
20752;BME280;10536;51.582;5.016;2022-07-29T19:14:36;101769.06;;;21.62;100.00
20752;BME280;10536;51.582;5.016;2022-07-29T19:19:36;101775.72;;;21.50;100.00
20752;BME280;10536;51.582;5.016;2022-07-29T19:24:37;101777.94;;;21.39;100.00
20752;BME280;10536;51.582;5.016;2022-07-29T19:29:38;101781.88;;;21.28;100.00
20752;BME280;10536;51.582;5.016;2022-07-29T19:34:38;101797.28;;;21.17;100.00
20752;BME280;10536;51.582;5.016;2022-07-29T19:39:40;101802.19;;;21.04;100.00
20752;BME280;10536;51.582;5.016;2022-07-29T19:44:40;101816.69;;;20.93;100.00
20752;BME280;10536;51.582;5.016;2022-07-29T19:49:41;101818.13;;;20.79;100.00
20752;BME280;10536;51.582;5.016;2022-07-29T19:54:41;101821.28;;;20.65;100.00
20752;BME280;10536;51.582;5.016;2022-07-29T19:59:42;101837.47;;;20.55;100.00
20752;BME280;10536;51.582;5.016;2022-07-29T20:04:43;101838.84;;;20.41;100.00
20752;BME280;10536;51.582;5.016;2022-07-29T20:09:44;101847.03;;;20.34;100.00
20752;BME280;10536;51.582;5.016;2022-07-29T20:14:45;101848.16;;;20.26;100.00
20752;BME280;10536;51.582;5.016;2022-07-29T20:19:45;101844.03;;;20.19;100.00
20752;BME280;10536;51.582;5.016;2022-07-29T20:24:46;101847.97;;;20.07;100.00
20752;BME280;10536;51.582;5.016;2022-07-29T20:29:46;101843.13;;;19.97;100.00
20752;BME280;10536;51.582;5.016;2022-07-29T20:34:47;101849.56;;;19.88;100.00
20752;BME280;10536;51.582;5.016;2022-07-29T20:39:48;101850.00;;;19.76;100.00
20752;BME280;10536;51.582;5.016;2022-07-29T20:44:48;101852.91;;;19.66;100.00
20752;BME280;10536;51.582;5.016;2022-07-29T20:49:50;101863.75;;;19.57;100.00
20752;BME280;10536;51.582;5.016;2022-07-29T20:54:51;101848.25;;;19.49;100.00
20752;BME280;10536;51.582;5.016;2022-07-29T20:59:51;101850.34;;;19.40;100.00
20752;BME280;10536;51.582;5.016;2022-07-29T21:04:52;101847.00;;;19.34;100.00
20752;BME280;10536;51.582;5.016;2022-07-29T21:09:52;101857.69;;;19.28;100.00
20752;BME280;10536;51.582;5.016;2022-07-29T21:14:53;101861.41;;;19.21;100.00
20752;BME280;10536;51.582;5.016;2022-07-29T21:19:54;101855.69;;;19.10;100.00
20752;BME280;10536;51.582;5.016;2022-07-29T21:24:55;101858.41;;;19.07;100.00
20752;BME280;10536;51.582;5.016;2022-07-29T21:29:55;101861.81;;;19.09;100.00
20752;BME280;10536;51.582;5.016;2022-07-29T21:34:56;101852.44;;;19.02;100.00
20752;BME280;10536;51.582;5.016;2022-07-29T21:39:57;101857.66;;;19.02;100.00
20752;BME280;10536;51.582;5.016;2022-07-29T21:45:00;101850.00;;;18.96;100.00
20752;BME280;10536;51.582;5.016;2022-07-29T21:50:01;101853.59;;;18.93;100.00
20752;BME280;10536;51.582;5.016;2022-07-29T21:55:02;101852.06;;;18.86;100.00
20752;BME280;10536;51.582;5.016;2022-07-29T22:00:04;101854.69;;;18.86;100.00
20752;BME280;10536;51.582;5.016;2022-07-29T22:05:05;101856.63;;;18.81;100.00
20752;BME280;10536;51.582;5.016;2022-07-29T22:10:06;101860.97;;;18.80;100.00
20752;BME280;10536;51.582;5.016;2022-07-29T22:15:07;101859.25;;;18.79;100.00
20752;BME280;10536;51.582;5.016;2022-07-29T22:20:08;101859.44;;;18.73;100.00
20752;BME280;10536;51.582;5.016;2022-07-29T22:25:09;101862.94;;;18.72;100.00
20752;BME280;10536;51.582;5.016;2022-07-29T22:30:10;101864.75;;;18.70;100.00
20752;BME280;10536;51.582;5.016;2022-07-29T22:35:11;101874.03;;;18.52;100.00
20752;BME280;10536;51.582;5.016;2022-07-29T22:40:11;101875.81;;;18.51;100.00
20752;BME280;10536;51.582;5.016;2022-07-29T22:45:12;101884.56;;;18.50;100.00
20752;BME280;10536;51.582;5.016;2022-07-29T22:50:12;101878.50;;;18.48;100.00
20752;BME280;10536;51.582;5.016;2022-07-29T22:55:13;101884.94;;;18.37;100.00
20752;BME280;10536;51.582;5.016;2022-07-29T23:00:14;101888.16;;;18.46;100.00
20752;BME280;10536;51.582;5.016;2022-07-29T23:05:14;101892.34;;;18.53;100.00
20752;BME280;10536;51.582;5.016;2022-07-29T23:10:15;101880.91;;;18.56;100.00
20752;BME280;10536;51.582;5.016;2022-07-29T23:15:15;101890.72;;;18.49;100.00
20752;BME280;10536;51.582;5.016;2022-07-29T23:20:16;101889.88;;;18.47;100.00
20752;BME280;10536;51.582;5.016;2022-07-29T23:25:16;101880.50;;;18.40;100.00
20752;BME280;10536;51.582;5.016;2022-07-29T23:30:17;101882.56;;;18.29;100.00
20752;BME280;10536;51.582;5.016;2022-07-29T23:35:17;101879.09;;;18.28;100.00
20752;BME280;10536;51.582;5.016;2022-07-29T23:40:18;101880.13;;;18.23;100.00
20752;BME280;10536;51.582;5.016;2022-07-29T23:45:18;101875.66;;;17.95;100.00
20752;BME280;10536;51.582;5.016;2022-07-29T23:50:18;101877.25;;;18.01;100.00
20752;BME280;10536;51.582;5.016;2022-07-29T23:55:19;101872.06;;;17.98;100.00
